createdAt,value
2022-08-29T00:00:23.522Z,18.60
2022-08-29T00:02:56.524Z,18.60
2022-08-29T00:05:28.353Z,18.50
2022-08-29T00:07:59.367Z,18.50
2022-08-29T00:10:31.327Z,18.50
2022-08-29T00:15:29.431Z,18.40
2022-08-29T00:17:57.928Z,18.40
2022-08-29T00:20:34.577Z,18.30
2022-08-29T00:23:04.442Z,18.30
2022-08-29T00:25:34.746Z,18.30
2022-08-29T00:30:33.156Z,18.20
2022-08-29T00:35:34.252Z,18.10
2022-08-29T00:38:03.620Z,18.10
2022-08-29T00:40:41.100Z,18.10
2022-08-29T00:43:10.267Z,18.10
2022-08-29T00:45:47.604Z,18.00
2022-08-29T00:48:18.232Z,18.00
2022-08-29T00:50:52.923Z,18.00
2022-08-29T00:53:29.350Z,18.00
2022-08-29T00:56:00.139Z,17.90
2022-08-29T00:58:33.356Z,17.90
2022-08-29T01:01:02.108Z,17.90
2022-08-29T01:03:33.695Z,17.90
2022-08-29T01:06:03.863Z,17.80
2022-08-29T01:08:32.348Z,17.80
2022-08-29T01:11:28.036Z,17.70
2022-08-29T01:13:57.831Z,17.70
2022-08-29T01:16:27.667Z,17.70
2022-08-29T01:19:00.716Z,17.70
2022-08-29T01:21:39.785Z,17.60
2022-08-29T01:24:26.432Z,17.60
2022-08-29T01:26:54.844Z,17.60
2022-08-29T01:29:23.139Z,17.60
2022-08-29T01:31:57.325Z,17.50
2022-08-29T01:34:29.757Z,17.50
2022-08-29T01:37:01.719Z,17.50
2022-08-29T01:39:35.532Z,17.50
2022-08-29T01:42:10.623Z,17.40
2022-08-29T01:44:40.956Z,17.40
2022-08-29T01:47:11.272Z,17.40
2022-08-29T01:49:41.015Z,17.40
2022-08-29T01:52:10.139Z,17.30
2022-08-29T01:54:41.053Z,17.30
2022-08-29T01:57:13.178Z,17.30
2022-08-29T01:59:43.124Z,17.20
2022-08-29T02:02:17.251Z,17.20
2022-08-29T02:04:47.203Z,17.20
2022-08-29T02:07:17.452Z,17.20
2022-08-29T02:09:48.973Z,17.10
2022-08-29T02:12:17.756Z,17.10
2022-08-29T02:14:46.509Z,17.10
2022-08-29T02:17:14.989Z,17.10
2022-08-29T02:19:44.118Z,17.10
2022-08-29T02:22:12.760Z,17.00
2022-08-29T02:24:41.196Z,17.00
2022-08-29T02:27:12.625Z,17.00
2022-08-29T02:29:41.055Z,17.00
2022-08-29T02:32:14.802Z,16.90
2022-08-29T02:34:47.821Z,16.90
2022-08-29T02:37:17.982Z,16.90
2022-08-29T02:39:46.275Z,16.90
2022-08-29T02:42:16.025Z,16.90
2022-08-29T02:44:44.754Z,16.80
2022-08-29T02:47:14.029Z,16.80
2022-08-29T02:49:42.408Z,16.80
2022-08-29T02:57:08.624Z,16.70
2022-08-29T02:59:38.315Z,16.70
2022-08-29T03:02:07.571Z,16.60
2022-08-29T03:04:35.911Z,16.60
2022-08-29T03:14:31.015Z,16.50
2022-08-29T03:17:00.749Z,16.50
2022-08-29T03:21:57.756Z,16.40
2022-08-29T03:24:27.013Z,16.50
2022-08-29T03:26:57.189Z,16.50
2022-08-29T03:31:58.584Z,16.50
2022-08-29T03:34:29.427Z,16.50
2022-08-29T03:39:27.304Z,16.50
2022-08-29T03:41:55.643Z,16.60
2022-08-29T03:46:53.855Z,16.60
2022-08-29T03:49:22.260Z,16.60
2022-08-29T03:51:52.051Z,16.50
2022-08-29T03:54:20.944Z,16.50
2022-08-29T03:56:49.631Z,16.50
2022-08-29T03:59:19.608Z,16.50
2022-08-29T04:01:48.444Z,16.40
2022-08-29T04:04:38.404Z,16.40
2022-08-29T04:07:08.754Z,16.30
2022-08-29T04:09:38.525Z,16.30
2022-08-29T04:12:07.459Z,16.20
2022-08-29T04:14:35.987Z,16.20
2022-08-29T04:19:35.211Z,16.10
2022-08-29T04:22:03.639Z,16.00
2022-08-29T04:24:34.386Z,16.00
2022-08-29T04:29:31.427Z,16.00
2022-08-29T04:31:59.955Z,16.00
2022-08-29T04:34:28.583Z,15.90
2022-08-29T04:39:25.702Z,15.90
2022-08-29T04:41:55.484Z,15.80
2022-08-29T04:49:21.615Z,15.80
2022-08-29T04:51:52.955Z,15.70
2022-08-29T04:54:21.348Z,15.70
2022-08-29T04:56:49.921Z,15.70
2022-08-29T04:59:20.826Z,15.60
2022-08-29T05:04:17.839Z,15.60
2022-08-29T05:06:46.141Z,15.60
2022-08-29T05:09:15.128Z,15.70
2022-08-29T05:16:42.334Z,15.60
2022-08-29T05:19:11.754Z,15.60
2022-08-29T05:21:41.999Z,15.60
2022-08-29T05:24:13.054Z,15.60
2022-08-29T05:26:44.704Z,15.60
2022-08-29T05:29:14.369Z,15.60
2022-08-29T05:31:45.815Z,15.60
2022-08-29T05:34:32.806Z,15.60
2022-08-29T05:39:32.764Z,15.70
2022-08-29T05:42:01.325Z,15.70
2022-08-29T05:44:35.283Z,15.70
2022-08-29T05:47:07.049Z,15.70
2022-08-29T05:49:37.758Z,15.70
2022-08-29T05:52:07.791Z,15.80
2022-08-29T05:54:39.323Z,15.80
2022-08-29T05:57:09.723Z,15.80
2022-08-29T05:59:38.472Z,15.90
2022-08-29T06:02:11.100Z,15.90
2022-08-29T06:04:40.432Z,15.90
2022-08-29T06:07:10.488Z,15.90
2022-08-29T06:09:40.678Z,16.00
2022-08-29T06:12:10.413Z,16.00
2022-08-29T06:17:10.487Z,16.10
2022-08-29T06:19:39.568Z,16.10
2022-08-29T06:22:10.383Z,16.20
2022-08-29T06:24:39.805Z,16.20
2022-08-29T06:27:08.384Z,16.30
2022-08-29T06:29:43.106Z,16.20
2022-08-29T06:32:14.261Z,16.40
2022-08-29T06:34:42.607Z,16.40
2022-08-29T06:37:11.174Z,16.50
2022-08-29T06:39:39.696Z,16.50
2022-08-29T06:42:08.232Z,16.60
2022-08-29T06:44:39.222Z,16.70
2022-08-29T06:47:09.681Z,16.70
2022-08-29T06:49:39.276Z,16.80
2022-08-29T06:52:07.810Z,16.90
2022-08-29T06:54:36.124Z,17.00
2022-08-29T06:57:04.668Z,17.10
2022-08-29T06:59:32.970Z,17.20
2022-08-29T07:02:01.480Z,17.20
2022-08-29T07:04:30.969Z,17.50
2022-08-29T07:07:00.705Z,17.90
2022-08-29T07:09:30.991Z,18.40
2022-08-29T07:11:59.373Z,18.80
2022-08-29T07:14:27.693Z,19.40
2022-08-29T07:16:56.648Z,19.80
2022-08-29T07:19:24.901Z,20.10
2022-08-29T07:21:55.379Z,20.50
2022-08-29T07:24:28.291Z,20.80
2022-08-29T07:26:56.763Z,21.00
2022-08-29T07:29:25.076Z,21.30
2022-08-29T07:31:54.157Z,21.50
2022-08-29T07:34:22.641Z,21.70
2022-08-29T07:36:50.961Z,21.90
2022-08-29T07:39:20.605Z,22.00
2022-08-29T07:41:51.052Z,22.10
2022-08-29T07:44:20.235Z,22.30
2022-08-29T07:46:48.571Z,22.40
2022-08-29T07:49:16.883Z,22.50
2022-08-29T07:51:45.187Z,22.60
2022-08-29T07:54:16.544Z,22.70
2022-08-29T07:56:45.098Z,23.00
2022-08-29T07:59:15.575Z,23.00
2022-08-29T08:01:44.207Z,23.20
2022-08-29T08:04:13.647Z,23.40
2022-08-29T08:06:43.288Z,23.50
2022-08-29T08:09:14.058Z,23.50
2022-08-29T08:11:43.937Z,23.70
2022-08-29T08:14:14.767Z,24.00
2022-08-29T08:19:14.571Z,24.40
2022-08-29T08:21:49.708Z,24.40
2022-08-29T08:24:20.107Z,24.50
2022-08-29T08:26:49.518Z,24.70
2022-08-29T08:29:19.417Z,25.00
2022-08-29T08:31:50.198Z,25.00
2022-08-29T08:34:19.252Z,25.10
2022-08-29T08:36:47.632Z,25.20
2022-08-29T08:39:16.563Z,25.30
2022-08-29T08:41:54.289Z,25.40
2022-08-29T08:44:53.197Z,25.70
2022-08-29T08:47:28.486Z,25.70
2022-08-29T08:50:02.634Z,25.70
2022-08-29T08:52:42.137Z,25.70
2022-08-29T08:55:35.072Z,25.70
2022-08-29T08:58:13.596Z,25.70
2022-08-29T09:00:50.151Z,25.60
2022-08-29T09:04:11.360Z,25.60
2022-08-29T09:06:59.542Z,25.70
2022-08-29T09:09:41.233Z,26.00
2022-08-29T09:12:26.056Z,26.10
2022-08-29T09:15:05.534Z,26.20
2022-08-29T09:17:43.303Z,26.30
2022-08-29T09:20:17.963Z,26.40
2022-08-29T09:22:53.469Z,26.40
2022-08-29T09:25:26.154Z,26.50
2022-08-29T09:27:56.845Z,26.60
2022-08-29T09:30:29.249Z,27.00
2022-08-29T09:33:02.979Z,27.10
2022-08-29T09:35:39.725Z,27.40
2022-08-29T09:38:23.774Z,27.50
2022-08-29T09:40:56.422Z,27.60
2022-08-29T09:43:29.465Z,27.80
2022-08-29T09:46:08.255Z,27.90
2022-08-29T09:48:42.138Z,28.20
2022-08-29T09:51:16.008Z,28.20
2022-08-29T09:53:45.433Z,28.90
2022-08-29T09:56:21.889Z,28.90
2022-08-29T09:59:03.591Z,29.30
2022-08-29T10:01:36.562Z,29.70
2022-08-29T10:04:09.082Z,30.10
2022-08-29T10:06:45.201Z,30.40
2022-08-29T10:09:29.925Z,30.60
2022-08-29T10:12:04.575Z,31.00
2022-08-29T10:14:39.978Z,31.00
2022-08-29T10:17:41.771Z,31.10
2022-08-29T10:20:13.043Z,31.10
2022-08-29T10:22:48.356Z,31.20
2022-08-29T10:25:26.570Z,31.50
2022-08-29T10:28:02.547Z,31.60
2022-08-29T10:30:42.841Z,31.90
2022-08-29T10:33:25.284Z,32.00
2022-08-29T10:36:00.696Z,32.00
2022-08-29T10:38:47.476Z,32.00
2022-08-29T10:41:33.451Z,32.00
2022-08-29T10:44:24.236Z,32.10
2022-08-29T10:47:21.107Z,32.30
2022-08-29T10:50:42.579Z,32.50
2022-08-29T10:53:17.406Z,32.60
2022-08-29T10:55:56.488Z,32.90
2022-08-29T10:58:44.467Z,33.00
2022-08-29T11:01:22.595Z,33.20
2022-08-29T11:03:59.618Z,33.30
2022-08-29T11:06:32.722Z,33.30
2022-08-29T11:09:10.993Z,33.40
2022-08-29T11:11:46.729Z,33.50
2022-08-29T11:14:24.638Z,33.40
2022-08-29T11:16:55.627Z,33.40
2022-08-29T11:19:31.197Z,33.60
2022-08-29T11:22:06.076Z,34.00
2022-08-29T11:24:38.145Z,34.20
2022-08-29T11:27:16.659Z,34.50
2022-08-29T11:29:54.086Z,34.70
2022-08-29T11:32:30.136Z,35.10
2022-08-29T11:35:12.964Z,35.10
2022-08-29T11:38:17.023Z,35.10
2022-08-29T11:41:27.993Z,35.10
2022-08-29T11:44:18.764Z,35.20
2022-08-29T11:46:56.134Z,35.10
2022-08-29T11:49:39.766Z,35.10
2022-08-29T11:52:27.784Z,35.20
2022-08-29T11:55:32.125Z,35.30
2022-08-29T11:58:11.327Z,35.40
2022-08-29T12:00:52.390Z,35.40
2022-08-29T12:03:47.951Z,35.40
2022-08-29T12:06:42.372Z,35.30
2022-08-29T12:09:44.033Z,35.40
2022-08-29T12:12:43.875Z,35.40
2022-08-29T12:16:09.263Z,35.40
2022-08-29T12:18:50.721Z,35.30
2022-08-29T12:21:49.567Z,35.30
2022-08-29T12:24:44.100Z,35.30
2022-08-29T12:27:40.589Z,35.40
2022-08-29T12:30:10.403Z,35.70
2022-08-29T12:33:00.102Z,34.40
2022-08-29T12:36:19.352Z,35.90
2022-08-29T12:39:11.448Z,35.90
2022-08-29T12:42:00.513Z,36.10
2022-08-29T12:44:39.765Z,36.10
2022-08-29T12:47:12.031Z,36.30
2022-08-29T12:49:51.463Z,36.60
2022-08-29T12:52:27.737Z,36.70
2022-08-29T12:54:58.013Z,36.90
2022-08-29T12:57:33.813Z,37.00
2022-08-29T13:00:09.289Z,37.10
2022-08-29T13:02:39.493Z,37.20
2022-08-29T13:05:28.762Z,37.30
2022-08-29T13:08:00.198Z,37.30
2022-08-29T13:10:30.646Z,37.30
2022-08-29T13:13:13.264Z,37.20
2022-08-29T13:15:42.639Z,37.10
2022-08-29T13:18:16.353Z,37.30
2022-08-29T13:20:51.463Z,37.30
2022-08-29T13:23:28.702Z,37.50
2022-08-29T13:26:02.063Z,37.70
2022-08-29T13:28:42.944Z,37.90
2022-08-29T13:31:36.198Z,38.00
2022-08-29T13:34:23.176Z,38.00
2022-08-29T13:37:07.728Z,38.00
2022-08-29T13:39:47.030Z,38.00
2022-08-29T13:42:21.114Z,38.00
2022-08-29T13:45:13.816Z,38.10
2022-08-29T13:47:59.576Z,38.20
2022-08-29T13:50:29.096Z,38.20
2022-08-29T13:53:00.251Z,38.30
2022-08-29T13:55:29.638Z,38.40
2022-08-29T13:57:58.635Z,38.40
2022-08-29T14:00:35.013Z,38.40
2022-08-29T14:03:07.498Z,38.30
2022-08-29T14:05:36.311Z,38.30
2022-08-29T14:08:07.069Z,38.30
2022-08-29T14:10:35.595Z,38.10
2022-08-29T14:13:05.502Z,37.90
2022-08-29T14:15:34.667Z,37.70
2022-08-29T14:18:03.052Z,37.70
2022-08-29T14:20:31.600Z,37.80
2022-08-29T14:22:59.954Z,37.90
2022-08-29T14:25:29.787Z,37.90
2022-08-29T14:27:58.204Z,37.90
2022-08-29T14:30:27.199Z,37.80
2022-08-29T14:32:55.480Z,37.80
2022-08-29T14:35:26.468Z,37.80
2022-08-29T14:37:56.939Z,37.80
2022-08-29T14:40:29.045Z,37.70
2022-08-29T14:42:59.453Z,37.60
2022-08-29T14:45:28.655Z,37.70
2022-08-29T14:47:57.180Z,37.80
2022-08-29T14:50:25.608Z,38.00
2022-08-29T14:52:54.275Z,38.00
2022-08-29T14:55:23.117Z,38.10
2022-08-29T14:57:51.572Z,38.20
2022-08-29T15:00:24.859Z,38.20
2022-08-29T15:02:53.765Z,38.30
2022-08-29T15:05:22.483Z,38.20
2022-08-29T15:07:51.451Z,38.10
2022-08-29T15:10:24.792Z,38.00
2022-08-29T15:12:54.327Z,37.60
2022-08-29T15:15:29.296Z,37.40
2022-08-29T15:17:59.417Z,37.40
2022-08-29T15:20:36.109Z,37.40
2022-08-29T15:23:04.981Z,37.30
2022-08-29T15:25:33.549Z,37.40
2022-08-29T15:28:02.172Z,37.30
2022-08-29T15:30:31.815Z,37.30
2022-08-29T15:35:28.868Z,37.00
2022-08-29T15:37:57.388Z,36.80
2022-08-29T15:40:26.339Z,36.80
2022-08-29T15:42:54.769Z,36.60
2022-08-29T15:45:23.173Z,36.60
2022-08-29T15:47:53.901Z,36.40
2022-08-29T15:50:23.912Z,36.20
2022-08-29T15:52:52.776Z,36.10
2022-08-29T15:55:21.968Z,36.00
2022-08-29T15:57:52.255Z,35.90
2022-08-29T16:00:29.610Z,35.80
2022-08-29T16:03:03.249Z,35.80
2022-08-29T16:05:32.843Z,35.80
2022-08-29T16:08:01.790Z,35.80
2022-08-29T16:10:30.603Z,35.70
2022-08-29T16:12:59.157Z,35.60
2022-08-29T16:15:30.932Z,35.30
2022-08-29T16:18:02.625Z,35.20
2022-08-29T16:20:32.203Z,35.00
2022-08-29T16:23:01.244Z,35.40
2022-08-29T16:25:32.110Z,34.50
2022-08-29T16:28:01.627Z,34.30
2022-08-29T16:30:32.085Z,34.00
2022-08-29T16:33:01.888Z,33.90
2022-08-29T16:35:30.546Z,33.60
2022-08-29T16:38:00.418Z,33.20
2022-08-29T16:40:33.156Z,32.70
2022-08-29T16:43:02.686Z,32.30
2022-08-29T16:45:31.632Z,32.20
2022-08-29T16:48:01.473Z,32.20
2022-08-29T16:50:33.062Z,32.20
2022-08-29T16:53:02.760Z,32.10
2022-08-29T16:55:32.350Z,32.20
2022-08-29T17:00:46.743Z,32.10
2022-08-29T17:03:20.086Z,32.00
2022-08-29T17:05:49.930Z,31.90
2022-08-29T17:08:17.757Z,31.80
2022-08-29T17:10:45.219Z,31.70
2022-08-29T17:13:12.903Z,31.60
2022-08-29T17:15:40.200Z,31.50
2022-08-29T17:20:41.208Z,31.20
2022-08-29T17:23:10.123Z,31.00
2022-08-29T17:25:39.442Z,30.90
2022-08-29T17:28:17.541Z,30.70
2022-08-29T17:30:47.324Z,30.50
2022-08-29T17:33:16.034Z,30.30
2022-08-29T17:35:45.826Z,30.00
2022-08-29T17:38:15.498Z,29.80
2022-08-29T17:40:44.694Z,29.40
2022-08-29T17:43:14.010Z,29.10
2022-08-29T17:45:42.459Z,28.80
2022-08-29T17:48:11.550Z,28.40
2022-08-29T17:50:40.002Z,28.00
2022-08-29T17:53:09.647Z,27.70
2022-08-29T17:58:07.104Z,27.10
2022-08-29T18:00:36.355Z,26.90
2022-08-29T18:05:33.733Z,26.50
2022-08-29T18:08:02.204Z,26.40
2022-08-29T18:10:32.694Z,26.10
2022-08-29T18:20:32.727Z,25.60
2022-08-29T18:23:01.119Z,25.40
2022-08-29T18:25:30.973Z,25.30
2022-08-29T18:28:00.057Z,25.10
2022-08-29T18:30:29.149Z,25.10
2022-08-29T18:35:26.752Z,24.80
2022-08-29T18:40:24.558Z,24.60
2022-08-29T18:42:54.311Z,24.50
2022-08-29T18:47:51.224Z,24.40
2022-08-29T18:53:07.628Z,24.10
2022-08-29T18:55:36.243Z,24.10
2022-08-29T18:58:06.381Z,24.00
2022-08-29T19:00:35.580Z,23.90
2022-08-29T19:03:05.719Z,23.80
2022-08-29T19:05:35.596Z,23.80
2022-08-29T19:08:04.731Z,23.70
2022-08-29T19:10:34.211Z,23.70
2022-08-29T19:15:32.729Z,23.60
2022-08-29T19:20:48.754Z,23.40
2022-08-29T19:25:46.891Z,23.30
2022-08-29T19:30:46.807Z,23.20
2022-08-29T19:33:17.839Z,23.10
2022-08-29T19:35:48.957Z,23.10
2022-08-29T19:38:19.091Z,23.10
2022-08-29T19:40:52.188Z,23.10
2022-08-29T19:43:20.753Z,23.00
2022-08-29T19:45:50.561Z,22.90
2022-08-29T19:48:20.108Z,22.80
2022-08-29T19:50:49.900Z,22.80
2022-08-29T19:53:24.596Z,22.70
2022-08-29T19:55:56.788Z,22.70
2022-08-29T19:58:31.857Z,22.60
2022-08-29T20:01:03.392Z,22.50
2022-08-29T20:03:32.367Z,22.50
2022-08-29T20:06:06.055Z,22.50
2022-08-29T20:08:36.764Z,22.50
2022-08-29T20:11:06.639Z,22.40
2022-08-29T20:13:36.249Z,22.30
2022-08-29T20:16:12.208Z,22.30
2022-08-29T20:18:41.764Z,22.20
2022-08-29T20:21:10.421Z,22.20
2022-08-29T20:23:47.184Z,22.20
2022-08-29T20:26:19.483Z,22.10
2022-08-29T20:28:49.490Z,22.00
2022-08-29T20:31:19.784Z,22.00
2022-08-29T20:33:49.092Z,21.90
2022-08-29T20:36:38.264Z,21.80
2022-08-29T20:39:09.552Z,21.80
2022-08-29T20:44:09.738Z,21.70
2022-08-29T20:46:41.851Z,21.60
2022-08-29T20:49:12.049Z,21.60
2022-08-29T20:51:43.294Z,21.50
2022-08-29T20:54:12.938Z,21.50
2022-08-29T20:56:41.393Z,21.40
2022-08-29T20:59:10.341Z,21.40
2022-08-29T21:01:41.628Z,21.40
2022-08-29T21:04:28.092Z,21.30
2022-08-29T21:06:58.228Z,21.30
2022-08-29T21:09:27.076Z,21.30
2022-08-29T21:11:55.633Z,21.20
2022-08-29T21:14:24.412Z,21.20
2022-08-29T21:16:56.399Z,21.20
2022-08-29T21:19:29.735Z,21.10
2022-08-29T21:21:59.562Z,21.10
2022-08-29T21:26:57.820Z,21.00
2022-08-29T21:29:26.340Z,21.00
2022-08-29T21:31:56.275Z,20.90
2022-08-29T21:34:25.423Z,20.90
2022-08-29T21:36:54.401Z,20.80
2022-08-29T21:41:57.982Z,20.80
2022-08-29T21:44:29.850Z,20.70
2022-08-29T21:46:59.848Z,20.60
2022-08-29T21:49:30.303Z,20.60
2022-08-29T21:51:58.924Z,20.60
2022-08-29T21:54:28.274Z,20.50
2022-08-29T21:56:56.685Z,20.50
2022-08-29T22:01:56.635Z,20.40
2022-08-29T22:04:28.083Z,20.30
2022-08-29T22:06:59.241Z,20.30
2022-08-29T22:09:29.740Z,20.30
2022-08-29T22:11:58.676Z,20.20
2022-08-29T22:14:42.296Z,20.20
2022-08-29T22:17:10.677Z,20.20
2022-08-29T22:19:40.740Z,20.10
2022-08-29T22:24:38.448Z,20.00
2022-08-29T22:27:07.242Z,19.90
2022-08-29T22:32:05.233Z,19.90
2022-08-29T22:34:33.681Z,19.90
2022-08-29T22:37:03.429Z,19.90
2022-08-29T22:39:32.023Z,19.80
2022-08-29T22:47:19.256Z,19.70
2022-08-29T22:49:47.736Z,19.70
2022-08-29T22:52:17.405Z,19.70
2022-08-29T22:54:46.109Z,19.60
2022-08-29T22:57:18.322Z,19.60
2022-08-29T22:59:49.168Z,19.50
2022-08-29T23:02:19.405Z,19.40
2022-08-29T23:04:49.154Z,19.40
2022-08-29T23:07:20.300Z,19.40
2022-08-29T23:09:48.684Z,19.30
2022-08-29T23:14:47.193Z,19.30
2022-08-29T23:17:18.086Z,19.20
2022-08-29T23:22:19.748Z,19.10
2022-08-29T23:27:28.668Z,19.10
2022-08-29T23:32:26.861Z,19.00
2022-08-29T23:34:55.928Z,19.00
2022-08-29T23:37:25.882Z,18.90
2022-08-29T23:39:54.362Z,18.80
2022-08-29T23:42:22.700Z,18.70
2022-08-29T23:44:51.088Z,18.70
2022-08-29T23:47:20.305Z,18.60
2022-08-29T23:49:48.984Z,18.60
2022-08-29T23:52:17.337Z,18.60
2022-08-29T23:54:46.979Z,18.60
2022-08-29T23:57:15.317Z,18.60
